Time;durP1;ratioP1;P1;durP2;ratioP2;P2;SDS_P1;SDS_P2;PMS_P1;PMS_P2;Temp;Humidity;BMP_temperature;BMP_pressure;BME280_temperature;BME280_humidity;BME280_pressure;Samples;Min_cycle;Max_cycle;Signal;HPM_P1;HPM_P2
2023/08/08 00:01:04;;;;;;;0.10;0.10;;;14.40;99.90;;;;;;4818807;29;20060;-79
2023/08/08 00:03:30;;;;;;;0.20;0.20;;;14.50;99.90;;;;;;4819593;29;20046;-79
2023/08/08 00:05:55;;;;;;;0.20;0.20;;;14.40;99.90;;;;;;4819845;29;20045;-79
2023/08/08 00:08:21;;;;;;;0.10;0.10;;;14.40;99.90;;;;;;4820807;29;20058;-79
2023/08/08 00:10:47;;;;;;;0.20;0.20;;;14.40;99.90;;;;;;4822318;29;20455;-79
2023/08/08 00:13:12;;;;;;;0.20;0.20;;;14.40;99.90;;;;;;4820108;29;20061;-79
2023/08/08 00:15:38;;;;;;;0.20;0.20;;;14.40;99.90;;;;;;4819858;29;20483;-79
2023/08/08 00:18:04;;;;;;;0.10;0.10;;;14.30;99.90;;;;;;4806903;29;20503;-80
2023/08/08 00:20:30;;;;;;;0.20;0.20;;;14.40;99.90;;;;;;4817904;29;20395;-80
2023/08/08 00:22:56;;;;;;;0.20;0.20;;;14.30;99.90;;;;;;4815629;29;20057;-80
2023/08/08 00:25:21;;;;;;;0.10;0.10;;;14.30;99.90;;;;;;4818471;29;20038;-79
2023/08/08 00:27:47;;;;;;;0.10;0.10;;;14.30;99.90;;;;;;4819468;29;20079;-80
2023/08/08 00:30:13;;;;;;;0.20;0.20;;;14.30;99.90;;;;;;4819983;29;20055;-80
2023/08/08 00:32:39;;;;;;;0.20;0.20;;;14.30;99.90;;;;;;4818897;29;20050;-80
2023/08/08 00:35:05;;;;;;;0.10;0.10;;;14.30;99.90;;;;;;4821009;29;20515;-79
2023/08/08 00:37:31;;;;;;;0.15;0.15;;;14.30;99.90;;;;;;4820762;29;20575;-79
2023/08/08 00:39:57;;;;;;;0.10;0.10;;;14.30;99.90;;;;;;4819455;29;20058;-79
2023/08/08 00:42:22;;;;;;;0.20;0.20;;;14.30;99.90;;;;;;4819696;29;20061;-79
2023/08/08 00:44:48;;;;;;;0.20;0.20;;;14.30;99.90;;;;;;4815782;29;20050;-80
2023/08/08 00:47:14;;;;;;;0.15;0.15;;;14.30;99.90;;;;;;4819076;29;20050;-79
2023/08/08 00:49:40;;;;;;;0.15;0.15;;;14.30;99.90;;;;;;4804970;29;20068;-80
2023/08/08 00:52:07;;;;;;;0.13;0.13;;;14.20;99.90;;;;;;4821016;29;20046;-79
2023/08/08 00:54:32;;;;;;;0.10;0.10;;;14.20;99.90;;;;;;4803394;29;20050;-80
2023/08/08 00:56:58;;;;;;;0.10;0.10;;;14.20;99.90;;;;;;4822355;29;20057;-79
2023/08/08 00:59:24;;;;;;;0.10;0.10;;;14.20;99.90;;;;;;4819299;29;20133;-79
2023/08/08 01:01:50;;;;;;;0.20;0.20;;;14.20;99.90;;;;;;4819716;29;20038;-80
2023/08/08 01:04:16;;;;;;;0.20;0.20;;;14.20;99.90;;;;;;4819566;29;20046;-79
2023/08/08 01:07:04;;;;;;;0.20;0.20;;;14.20;99.90;;;;;;4819718;29;20054;-80
2023/08/08 01:09:38;;;;;;;0.20;0.20;;;14.20;99.90;;;;;;4819189;29;20214;-79
2023/08/08 01:12:07;;;;;;;0.20;0.20;;;14.20;99.90;;;;;;4819372;29;20053;-80
2023/08/08 01:14:35;;;;;;;0.20;0.20;;;14.20;99.90;;;;;;4818261;29;20047;-80
2023/08/08 01:17:01;;;;;;;0.10;0.10;;;14.10;99.90;;;;;;4808752;29;20058;-79
2023/08/08 01:19:30;;;;;;;0.10;0.10;;;14.10;99.90;;;;;;4819647;29;20071;-79
2023/08/08 01:22:02;;;;;;;0.20;0.20;;;14.10;99.90;;;;;;4802970;29;20502;-79
2023/08/08 01:24:30;;;;;;;0.10;0.10;;;14.20;99.90;;;;;;4801757;29;20507;-79
2023/08/08 01:26:56;;;;;;;0.10;0.10;;;14.20;99.90;;;;;;4814029;29;20049;-79
2023/08/08 01:29:22;;;;;;;0.10;0.10;;;14.20;99.90;;;;;;4813417;29;20050;-79
2023/08/08 01:31:48;;;;;;;0.20;0.20;;;14.10;99.90;;;;;;4799556;29;20073;-79
2023/08/08 01:34:14;;;;;;;0.20;0.20;;;14.10;99.90;;;;;;4814122;29;20403;-79
2023/08/08 01:36:49;;;;;;;0.10;0.10;;;14.20;99.90;;;;;;4822523;29;20123;-79
2023/08/08 01:39:21;;;;;;;0.17;0.17;;;14.10;99.90;;;;;;4807982;29;20124;-79
2023/08/08 01:41:48;;;;;;;0.10;0.10;;;14.10;99.90;;;;;;4818792;29;20137;-80
2023/08/08 01:44:15;;;;;;;0.20;0.20;;;14.10;99.90;;;;;;4823508;29;20123;-79
2023/08/08 01:46:41;;;;;;;0.20;0.20;;;14.10;99.90;;;;;;4823703;29;20057;-79
2023/08/08 01:49:07;;;;;;;0.20;0.20;;;14.20;99.90;;;;;;4821758;29;20038;-79
2023/08/08 01:51:33;;;;;;;0.20;0.20;;;14.20;99.90;;;;;;4806140;29;20042;-80
2023/08/08 01:53:58;;;;;;;0.20;0.20;;;14.10;99.90;;;;;;4822455;29;20415;-80
2023/08/08 01:56:24;;;;;;;0.20;0.20;;;14.20;99.90;;;;;;4821100;29;20050;-79
2023/08/08 01:58:50;;;;;;;0.20;0.20;;;14.10;99.90;;;;;;4822516;29;20062;-80
2023/08/08 02:01:15;;;;;;;0.20;0.20;;;14.20;99.90;;;;;;4814072;29;20046;-80
2023/08/08 02:03:41;;;;;;;0.10;0.10;;;14.20;99.90;;;;;;4823348;29;20050;-80
2023/08/08 02:06:07;;;;;;;0.20;0.20;;;14.20;99.90;;;;;;4806944;29;20470;-80
2023/08/08 02:08:32;;;;;;;0.15;0.15;;;14.20;99.90;;;;;;4822227;29;20050;-79
2023/08/08 02:10:58;;;;;;;0.10;0.10;;;14.20;99.90;;;;;;4822524;29;20048;-79
2023/08/08 02:13:23;;;;;;;0.13;0.13;;;14.20;99.90;;;;;;4822190;29;20046;-80
2023/08/08 02:15:49;;;;;;;0.20;0.20;;;14.20;99.90;;;;;;4820486;29;20042;-79
2023/08/08 02:18:15;;;;;;;0.20;0.20;;;14.30;99.90;;;;;;4820440;29;20078;-79
2023/08/08 02:20:40;;;;;;;0.20;0.20;;;14.30;99.90;;;;;;4822050;29;20042;-80
2023/08/08 02:23:06;;;;;;;0.10;0.10;;;14.30;99.90;;;;;;4822278;29;20503;-79
2023/08/08 02:25:32;;;;;;;0.20;0.20;;;14.30;99.90;;;;;;4832081;29;20403;-79
2023/08/08 02:27:58;;;;;;;0.20;0.20;;;14.30;99.90;;;;;;4803630;29;20070;-79
2023/08/08 02:30:23;;;;;;;0.20;0.20;;;14.30;99.90;;;;;;4817575;29;20539;-79
2023/08/08 02:32:49;;;;;;;0.10;0.10;;;14.30;99.90;;;;;;4814051;29;20418;-80
2023/08/08 02:35:15;;;;;;;0.10;0.10;;;14.30;99.90;;;;;;4820511;29;20141;-80
2023/08/08 02:37:40;;;;;;;0.10;0.10;;;14.30;99.90;;;;;;4820383;29;20042;-79
2023/08/08 02:40:07;;;;;;;0.13;0.13;;;14.30;99.90;;;;;;4818141;29;20054;-80
2023/08/08 02:42:33;;;;;;;0.13;0.13;;;14.30;99.90;;;;;;4818548;29;20403;-79
2023/08/08 02:44:59;;;;;;;0.10;0.10;;;14.30;99.90;;;;;;4820440;29;20050;-79
2023/08/08 02:47:24;;;;;;;0.10;0.10;;;14.30;99.90;;;;;;4820968;29;20045;-80
2023/08/08 02:49:50;;;;;;;0.17;0.17;;;14.30;99.90;;;;;;4820580;29;20042;-79
2023/08/08 02:52:16;;;;;;;0.20;0.20;;;14.30;99.90;;;;;;4821022;29;20080;-79
2023/08/08 02:54:42;;;;;;;0.10;0.10;;;14.30;99.90;;;;;;4819897;29;20050;-79
2023/08/08 02:57:10;;;;;;;0.10;0.10;;;14.30;99.90;;;;;;4820960;29;20064;-79
2023/08/08 02:59:36;;;;;;;0.20;0.20;;;14.30;99.90;;;;;;4817819;29;20042;-79
2023/08/08 03:02:03;;;;;;;0.20;0.20;;;14.30;99.90;;;;;;4822309;29;20054;-79
2023/08/08 03:04:29;;;;;;;0.20;0.20;;;14.30;99.90;;;;;;4819286;29;20054;-79
2023/08/08 03:06:55;;;;;;;0.15;0.15;;;14.30;99.90;;;;;;4819409;29;20095;-79
2023/08/08 03:09:21;;;;;;;0.10;0.10;;;14.30;99.90;;;;;;4821934;29;20103;-79
2023/08/08 03:11:46;;;;;;;0.15;0.15;;;14.30;99.90;;;;;;4822543;29;20046;-79
2023/08/08 03:14:12;;;;;;;0.10;0.10;;;14.30;99.90;;;;;;4819418;29;20426;-80
2023/08/08 03:16:38;;;;;;;0.10;0.10;;;14.30;99.90;;;;;;4820425;29;20103;-79
2023/08/08 03:19:04;;;;;;;0.20;0.20;;;14.30;99.90;;;;;;4806349;29;20050;-78
2023/08/08 03:21:30;;;;;;;0.13;0.13;;;14.30;99.90;;;;;;4821383;29;20137;-78
2023/08/08 03:23:57;;;;;;;0.13;0.13;;;14.30;99.90;;;;;;4821437;29;20137;-78
2023/08/08 03:26:23;;;;;;;0.20;0.20;;;14.20;99.90;;;;;;4806774;29;20051;-78
2023/08/08 03:28:50;;;;;;;0.20;0.20;;;14.20;99.90;;;;;;4820513;29;20054;-78
2023/08/08 03:31:17;;;;;;;0.20;0.20;;;14.20;99.90;;;;;;4805000;29;20499;-79
2023/08/08 03:33:43;;;;;;;0.20;0.20;;;14.20;99.90;;;;;;4810494;29;20050;-78
2023/08/08 03:36:08;;;;;;;0.13;0.13;;;14.20;99.90;;;;;;4818372;29;20486;-78
2023/08/08 03:38:35;;;;;;;0.20;0.20;;;14.20;99.90;;;;;;4822472;29;20051;-78
2023/08/08 03:41:01;;;;;;;0.10;0.10;;;14.20;99.90;;;;;;4818784;29;20046;-78
2023/08/08 03:43:26;;;;;;;0.10;0.10;;;14.20;99.90;;;;;;4818304;29;20058;-78
2023/08/08 03:45:52;;;;;;;0.17;0.17;;;14.20;99.90;;;;;;4820017;29;20085;-78
2023/08/08 03:48:18;;;;;;;0.20;0.20;;;14.20;99.90;;;;;;4818538;29;20057;-78
2023/08/08 03:50:43;;;;;;;0.20;0.20;;;14.20;99.90;;;;;;4817786;29;20046;-77
2023/08/08 03:53:09;;;;;;;0.20;0.20;;;14.20;99.90;;;;;;4822323;29;20099;-80
2023/08/08 03:55:35;;;;;;;0.20;0.20;;;14.20;99.90;;;;;;4819939;29;20122;-78
2023/08/08 03:58:00;;;;;;;0.20;0.20;;;14.20;99.90;;;;;;4817725;29;20038;-78
2023/08/08 04:00:26;;;;;;;0.20;0.20;;;14.10;99.90;;;;;;4819349;29;20100;-78
2023/08/08 04:02:52;;;;;;;0.20;0.20;;;14.10;99.90;;;;;;4812061;29;20042;-78
2023/08/08 04:05:18;;;;;;;0.13;0.13;;;14.10;99.90;;;;;;4819828;29;20046;-79
2023/08/08 04:07:43;;;;;;;0.10;0.10;;;14.10;99.90;;;;;;4822288;29;20042;-78
2023/08/08 04:10:09;;;;;;;0.20;0.20;;;14.10;99.90;;;;;;4820393;29;20058;-79
2023/08/08 04:12:35;;;;;;;0.10;0.10;;;14.10;99.90;;;;;;4821770;29;20125;-78
2023/08/08 04:15:01;;;;;;;0.20;0.20;;;14.10;99.90;;;;;;4820203;29;20061;-79
2023/08/08 04:17:26;;;;;;;0.10;0.10;;;14.10;99.90;;;;;;4821103;29;20046;-78
2023/08/08 04:19:52;;;;;;;0.20;0.20;;;14.10;99.90;;;;;;4822283;29;20050;-78
2023/08/08 04:22:18;;;;;;;0.10;0.10;;;14.00;99.90;;;;;;4820356;29;20512;-78
2023/08/08 04:24:43;;;;;;;0.20;0.20;;;14.00;99.90;;;;;;4821543;29;20042;-78
2023/08/08 04:27:10;;;;;;;0.15;0.15;;;14.10;99.90;;;;;;4819469;29;20503;-79
2023/08/08 04:29:36;;;;;;;0.10;0.10;;;14.00;99.90;;;;;;4819013;29;20510;-78
2023/08/08 04:32:02;;;;;;;0.20;0.20;;;14.00;99.90;;;;;;4804340;29;20095;-78
2023/08/08 04:34:27;;;;;;;0.10;0.10;;;14.00;99.90;;;;;;4820019;29;20495;-80
2023/08/08 04:36:53;;;;;;;0.10;0.10;;;14.00;99.90;;;;;;4820391;29;20050;-78
2023/08/08 04:39:18;;;;;;;0.20;0.20;;;14.00;99.90;;;;;;4819337;29;20145;-77
2023/08/08 04:41:44;;;;;;;0.20;0.20;;;14.00;99.90;;;;;;4822475;29;20053;-78
2023/08/08 04:44:10;;;;;;;0.20;0.20;;;14.00;99.90;;;;;;4818984;29;20049;-77
2023/08/08 04:46:35;;;;;;;0.10;0.10;;;14.10;99.90;;;;;;4804818;29;20057;-80
2023/08/08 04:49:01;;;;;;;0.20;0.20;;;14.00;99.90;;;;;;4817768;29;20130;-78
2023/08/08 04:51:27;;;;;;;0.10;0.10;;;14.00;99.90;;;;;;4818230;29;20046;-78
2023/08/08 04:53:52;;;;;;;0.17;0.17;;;14.00;99.90;;;;;;4815017;29;20047;-78
2023/08/08 04:56:18;;;;;;;0.15;0.15;;;14.00;99.90;;;;;;4818627;29;20053;-77
2023/08/08 04:58:44;;;;;;;0.13;0.13;;;14.10;99.90;;;;;;4818547;29;20050;-78
2023/08/08 05:01:14;;;;;;;0.20;0.20;;;14.10;99.90;;;;;;4806758;29;20050;-79
2023/08/08 05:03:39;;;;;;;0.20;0.20;;;14.10;99.90;;;;;;4818068;29;20055;-78
2023/08/08 05:06:05;;;;;;;0.10;0.10;;;14.10;99.90;;;;;;4818666;29;20042;-78
2023/08/08 05:08:31;;;;;;;0.17;0.17;;;14.10;99.90;;;;;;4820268;29;20042;-78
2023/08/08 05:10:56;;;;;;;0.10;0.10;;;14.20;99.90;;;;;;4819616;29;20069;-78
2023/08/08 05:13:22;;;;;;;0.10;0.10;;;14.20;99.90;;;;;;4822444;29;20042;-78
2023/08/08 05:15:48;;;;;;;0.10;0.10;;;14.30;99.90;;;;;;4822005;29;20051;-78
2023/08/08 05:18:13;;;;;;;0.10;0.10;;;14.20;99.90;;;;;;4822450;29;20403;-79
2023/08/08 05:20:39;;;;;;;0.10;0.10;;;14.30;99.90;;;;;;4806756;29;20054;-78
2023/08/08 05:23:05;;;;;;;0.20;0.20;;;14.30;99.90;;;;;;4823202;29;20510;-79
2023/08/08 05:25:30;;;;;;;0.10;0.10;;;14.30;99.90;;;;;;4821468;29;20492;-79
2023/08/08 05:27:56;;;;;;;0.10;0.10;;;14.40;99.90;;;;;;4814714;29;20085;-79
2023/08/08 05:30:22;;;;;;;0.10;0.10;;;14.40;99.90;;;;;;4824181;29;20054;-79
2023/08/08 05:32:48;;;;;;;0.10;0.10;;;14.40;99.90;;;;;;4823212;29;20051;-80
2023/08/08 05:35:13;;;;;;;0.10;0.10;;;14.40;99.90;;;;;;4806690;29;20046;-79
2023/08/08 05:37:39;;;;;;;0.13;0.13;;;14.50;99.90;;;;;;4824830;29;20081;-78
2023/08/08 05:40:06;;;;;;;0.10;0.10;;;14.50;99.90;;;;;;4822318;29;20058;-79
2023/08/08 05:42:32;;;;;;;0.20;0.20;;;14.50;99.90;;;;;;4822891;29;20110;-78
2023/08/08 05:44:58;;;;;;;0.20;0.20;;;14.60;99.90;;;;;;4823094;29;20141;-78
2023/08/08 05:47:23;;;;;;;0.20;0.20;;;14.60;99.90;;;;;;4823646;29;20410;-79
2023/08/08 05:49:49;;;;;;;0.10;0.10;;;14.60;99.90;;;;;;4810849;29;20054;-78
2023/08/08 05:52:15;;;;;;;0.10;0.10;;;14.60;99.90;;;;;;4821198;29;20035;-78
2023/08/08 05:54:40;;;;;;;0.10;0.10;;;14.60;99.90;;;;;;4820597;29;20529;-78
2023/08/08 05:57:06;;;;;;;0.10;0.10;;;14.60;99.90;;;;;;4817621;29;20054;-79
2023/08/08 05:59:32;;;;;;;0.15;0.15;;;14.60;99.90;;;;;;4818198;29;20050;-79
2023/08/08 06:01:58;;;;;;;0.10;0.10;;;14.60;99.90;;;;;;4814492;29;20092;-78
2023/08/08 06:04:24;;;;;;;0.20;0.20;;;14.60;99.90;;;;;;4806478;29;20499;-78
2023/08/08 06:06:50;;;;;;;0.10;0.10;;;14.70;99.90;;;;;;4821171;29;20046;-79
2023/08/08 06:09:16;;;;;;;0.10;0.10;;;14.60;99.90;;;;;;4821269;29;20047;-78
2023/08/08 06:11:42;;;;;;;0.20;0.20;;;14.60;99.90;;;;;;4820206;29;20034;-78
2023/08/08 06:14:08;;;;;;;0.20;0.20;;;14.70;99.90;;;;;;4820556;29;20483;-78
2023/08/08 06:16:34;;;;;;;0.20;0.20;;;14.70;99.90;;;;;;4820986;29;20050;-78
2023/08/08 06:18:59;;;;;;;0.17;0.17;;;14.80;99.90;;;;;;4822650;29;20064;-80
2023/08/08 06:21:25;;;;;;;0.20;0.20;;;14.80;99.90;;;;;;4801633;29;20054;-79
2023/08/08 06:23:54;;;;;;;0.20;0.20;;;14.90;99.90;;;;;;4806705;29;20046;-79
2023/08/08 06:26:21;;;;;;;0.20;0.20;;;14.90;99.90;;;;;;4819542;29;20039;-78
2023/08/08 06:28:47;;;;;;;0.20;0.20;;;15.00;99.90;;;;;;4805783;29;20050;-78
2023/08/08 06:31:13;;;;;;;0.20;0.20;;;15.00;99.90;;;;;;4820774;29;20070;-78
2023/08/08 06:33:39;;;;;;;0.20;0.20;;;15.10;99.90;;;;;;4823578;29;20055;-78
2023/08/08 06:36:05;;;;;;;0.10;0.10;;;15.10;99.90;;;;;;4820994;29;20170;-79
2023/08/08 06:38:34;;;;;;;0.10;0.10;;;15.10;99.90;;;;;;4821926;29;20199;-79
2023/08/08 06:41:02;;;;;;;0.20;0.20;;;15.20;99.90;;;;;;4841336;29;20125;-79
2023/08/08 06:43:28;;;;;;;0.10;0.10;;;15.30;99.90;;;;;;4823494;29;20113;-79
2023/08/08 06:45:53;;;;;;;0.10;0.10;;;15.30;99.90;;;;;;4835730;29;20093;-78
2023/08/08 06:48:19;;;;;;;0.10;0.10;;;15.30;99.90;;;;;;4838690;29;20038;-79
2023/08/08 06:50:45;;;;;;;0.20;0.20;;;15.40;99.90;;;;;;4826272;29;20060;-78
2023/08/08 06:53:10;;;;;;;0.20;0.20;;;15.40;99.90;;;;;;4822642;29;20152;-78
2023/08/08 06:55:36;;;;;;;0.20;0.20;;;15.50;99.90;;;;;;4821279;29;20054;-79
2023/08/08 06:58:02;;;;;;;0.10;0.10;;;15.50;99.90;;;;;;4823592;29;20102;-78
2023/08/08 07:00:29;;;;;;;0.10;0.10;;;15.60;99.90;;;;;;4817707;29;20076;-78
2023/08/08 07:02:55;;;;;;;0.20;0.20;;;15.60;99.90;;;;;;4824419;29;20081;-78
2023/08/08 07:05:22;;;;;;;0.20;0.20;;;15.60;99.90;;;;;;4823907;29;20077;-78
2023/08/08 07:07:49;;;;;;;0.30;0.30;;;15.70;99.90;;;;;;4837539;29;20069;-78
2023/08/08 07:10:15;;;;;;;0.20;0.20;;;15.80;99.90;;;;;;4824678;29;20406;-77
2023/08/08 07:12:41;;;;;;;0.20;0.20;;;15.80;99.90;;;;;;4823004;29;20054;-79
2023/08/08 07:15:09;;;;;;;0.10;0.10;;;15.80;99.90;;;;;;4822142;29;20057;-80
2023/08/08 07:17:35;;;;;;;0.20;0.20;;;15.90;99.90;;;;;;4812479;29;20047;-78
2023/08/08 07:20:01;;;;;;;0.20;0.20;;;15.90;99.90;;;;;;4837640;29;20098;-77
2023/08/08 07:22:27;;;;;;;0.15;0.15;;;16.00;99.90;;;;;;4836475;29;20194;-78
2023/08/08 07:24:53;;;;;;;0.20;0.20;;;16.00;99.90;;;;;;4824546;29;20079;-77
2023/08/08 07:27:19;;;;;;;0.17;0.17;;;16.00;99.90;;;;;;4840419;29;20060;-78
2023/08/08 07:29:44;;;;;;;0.10;0.10;;;16.10;99.90;;;;;;4838766;29;20118;-78
2023/08/08 07:32:10;;;;;;;0.10;0.10;;;16.10;99.90;;;;;;4838909;29;20057;-79
2023/08/08 07:34:36;;;;;;;0.10;0.10;;;16.20;99.90;;;;;;4812342;29;20050;-79
2023/08/08 07:37:03;;;;;;;0.10;0.10;;;16.20;99.90;;;;;;4823219;29;20050;-77
2023/08/08 07:39:28;;;;;;;0.20;0.20;;;16.30;99.90;;;;;;4834049;29;20058;-77
2023/08/08 07:41:54;;;;;;;0.20;0.20;;;16.40;99.90;;;;;;4819636;29;20057;-77
2023/08/08 07:44:20;;;;;;;0.10;0.10;;;16.40;99.90;;;;;;4820734;29;20496;-77
2023/08/08 07:46:46;;;;;;;0.10;0.10;;;16.50;99.90;;;;;;4820304;29;20073;-77
2023/08/08 07:49:12;;;;;;;0.10;0.10;;;16.50;99.90;;;;;;4804685;29;20058;-76
2023/08/08 07:51:37;;;;;;;0.20;0.20;;;16.50;99.90;;;;;;4812832;29;20043;-77
2023/08/08 07:54:05;;;;;;;0.20;0.20;;;16.60;99.90;;;;;;4815566;29;20516;-76
2023/08/08 07:56:31;;;;;;;0.10;0.10;;;16.70;99.90;;;;;;4803915;29;20057;-76
2023/08/08 07:58:56;;;;;;;0.10;0.10;;;16.80;99.90;;;;;;4818260;29;20050;-78
2023/08/08 08:01:23;;;;;;;0.10;0.10;;;16.80;99.90;;;;;;4818899;29;20046;-78
2023/08/08 08:03:48;;;;;;;0.20;0.20;;;16.80;99.90;;;;;;4817794;29;20149;-78
2023/08/08 08:06:14;;;;;;;0.10;0.10;;;16.80;99.90;;;;;;4819243;29;20175;-78
2023/08/08 08:08:40;;;;;;;0.20;0.20;;;16.80;99.90;;;;;;4819884;29;20113;-78
2023/08/08 08:11:05;;;;;;;0.20;0.20;;;16.80;99.90;;;;;;4815865;29;20042;-78
2023/08/08 08:13:31;;;;;;;0.10;0.10;;;16.80;99.90;;;;;;4812958;29;20078;-77
2023/08/08 08:15:58;;;;;;;0.20;0.20;;;16.90;99.90;;;;;;4817189;29;20054;-77
2023/08/08 08:18:23;;;;;;;0.10;0.10;;;16.90;99.90;;;;;;4811459;29;20050;-78
2023/08/08 08:20:49;;;;;;;0.20;0.20;;;17.00;99.90;;;;;;4809651;29;20065;-77
2023/08/08 08:23:15;;;;;;;0.20;0.20;;;17.00;99.90;;;;;;4795246;29;20055;-78
2023/08/08 08:25:41;;;;;;;0.10;0.10;;;17.00;99.90;;;;;;4819913;29;20542;-78
2023/08/08 08:28:07;;;;;;;0.10;0.10;;;17.00;99.90;;;;;;4814544;29;20086;-78
2023/08/08 08:30:33;;;;;;;0.20;0.20;;;17.00;99.90;;;;;;4816385;29;20053;-78
2023/08/08 08:32:59;;;;;;;0.20;0.20;;;17.00;99.90;;;;;;4812505;29;20050;-78
2023/08/08 08:35:25;;;;;;;0.20;0.20;;;17.00;99.90;;;;;;4810543;29;20054;-77
2023/08/08 08:37:51;;;;;;;0.20;0.20;;;17.00;99.90;;;;;;4810901;29;20058;-77
2023/08/08 08:40:17;;;;;;;0.20;0.20;;;17.00;99.90;;;;;;4814360;29;20064;-77
2023/08/08 08:42:44;;;;;;;0.20;0.20;;;17.00;99.90;;;;;;4813072;29;20294;-77
2023/08/08 08:45:11;;;;;;;0.10;0.10;;;17.00;99.90;;;;;;4809344;29;20052;-77
2023/08/08 08:47:40;;;;;;;0.10;0.10;;;17.00;99.90;;;;;;4809488;29;20042;-77
2023/08/08 08:50:07;;;;;;;0.20;0.20;;;17.00;99.90;;;;;;4809064;29;20077;-79
2023/08/08 08:52:33;;;;;;;0.20;0.20;;;17.00;99.90;;;;;;4810806;29;20057;-78
2023/08/08 08:54:59;;;;;;;0.20;0.20;;;17.00;99.90;;;;;;4809819;29;20058;-77
2023/08/08 08:57:24;;;;;;;0.10;0.10;;;17.00;99.90;;;;;;4813510;29;20058;-78
2023/08/08 08:59:51;;;;;;;0.20;0.20;;;17.00;99.90;;;;;;4809288;29;20061;-78
2023/08/08 09:02:18;;;;;;;0.17;0.17;;;17.00;99.90;;;;;;4815146;29;20408;-78
2023/08/08 09:04:45;;;;;;;0.20;0.20;;;17.10;99.90;;;;;;4815385;29;20592;-78
2023/08/08 09:07:12;;;;;;;0.20;0.20;;;17.10;99.90;;;;;;4809664;29;20050;-78
2023/08/08 09:09:38;;;;;;;0.20;0.20;;;17.10;99.90;;;;;;4809149;29;20424;-78
2023/08/08 09:12:07;;;;;;;0.20;0.20;;;17.10;99.90;;;;;;4812007;29;20083;-77
2023/08/08 09:14:33;;;;;;;0.20;0.20;;;17.10;99.90;;;;;;4807402;29;20098;-78
2023/08/08 09:16:58;;;;;;;0.20;0.20;;;17.10;99.90;;;;;;4812157;29;20046;-78
2023/08/08 09:19:24;;;;;;;0.20;0.20;;;17.10;99.90;;;;;;4809749;29;20751;-77
2023/08/08 09:21:52;;;;;;;0.17;0.17;;;17.10;99.90;;;;;;4809809;29;20125;-78
2023/08/08 09:24:18;;;;;;;0.20;0.20;;;17.10;99.90;;;;;;4810165;29;20490;-78
2023/08/08 09:26:44;;;;;;;0.20;0.20;;;17.10;99.90;;;;;;4805963;29;20046;-77
2023/08/08 09:29:12;;;;;;;0.20;0.20;;;17.10;99.90;;;;;;4809188;29;20065;-78
2023/08/08 09:31:39;;;;;;;0.20;0.20;;;17.10;99.90;;;;;;4808728;29;20054;-79
2023/08/08 09:34:05;;;;;;;0.20;0.20;;;17.10;99.90;;;;;;4808328;29;20070;-78
2023/08/08 09:36:33;;;;;;;0.20;0.20;;;17.20;99.90;;;;;;4808638;29;20116;-78
2023/08/08 09:38:59;;;;;;;0.20;0.20;;;17.30;99.90;;;;;;4809825;29;20093;-77
2023/08/08 09:41:26;;;;;;;0.20;0.20;;;17.30;99.90;;;;;;4812305;29;20050;-78
2023/08/08 09:43:52;;;;;;;0.20;0.20;;;17.50;99.90;;;;;;4816752;29;20054;-77
2023/08/08 09:46:19;;;;;;;0.20;0.20;;;17.50;99.90;;;;;;4818681;29;20074;-77
2023/08/08 09:48:46;;;;;;;0.20;0.20;;;17.60;99.90;;;;;;4817868;29;20504;-77
2023/08/08 09:51:12;;;;;;;0.10;0.10;;;17.60;99.90;;;;;;4813149;29;20500;-78
2023/08/08 09:53:39;;;;;;;0.20;0.20;;;17.70;99.90;;;;;;4818166;29;20103;-78
2023/08/08 09:56:05;;;;;;;0.10;0.10;;;17.80;99.90;;;;;;4823233;29;20125;-78
2023/08/08 09:58:31;;;;;;;0.20;0.20;;;17.90;99.90;;;;;;4825375;29;20170;-77
2023/08/08 10:00:57;;;;;;;0.10;0.10;;;17.90;99.90;;;;;;4820714;29;20046;-78
2023/08/08 10:03:23;;;;;;;0.10;0.10;;;17.90;99.90;;;;;;4806113;29;20059;-79
2023/08/08 10:05:49;;;;;;;0.20;0.20;;;17.80;99.90;;;;;;4817863;29;20042;-79
2023/08/08 10:08:15;;;;;;;0.20;0.20;;;17.80;99.90;;;;;;4817863;29;20484;-79
2023/08/08 10:10:43;;;;;;;0.17;0.17;;;17.70;99.90;;;;;;4809985;29;20091;-78
2023/08/08 10:13:10;;;;;;;0.20;0.20;;;17.60;99.90;;;;;;4809289;29;20099;-79
2023/08/08 10:15:39;;;;;;;0.20;0.20;;;17.40;99.90;;;;;;4812227;29;20484;-79
2023/08/08 10:18:06;;;;;;;0.15;0.15;;;17.30;99.90;;;;;;4819112;29;20041;-77
2023/08/08 10:20:35;;;;;;;0.13;0.13;;;17.20;99.90;;;;;;4823543;29;20049;-78
2023/08/08 10:23:02;;;;;;;0.20;0.20;;;17.10;99.90;;;;;;4825658;29;20153;-79
2023/08/08 10:25:30;;;;;;;0.10;0.10;;;16.90;99.90;;;;;;4811049;29;20038;-79
2023/08/08 10:28:07;;;;;;;0.20;0.20;;;16.90;99.90;;;;;;4812933;29;20046;-79
2023/08/08 10:30:52;;;;;;;0.10;0.10;;;16.90;99.90;;;;;;4816050;29;20050;-79
2023/08/08 10:33:22;;;;;;;0.20;0.20;;;16.90;99.90;;;;;;4818192;29;20461;-79
2023/08/08 10:35:59;;;;;;;0.20;0.20;;;16.80;99.90;;;;;;4807054;29;20544;-78
2023/08/08 10:38:26;;;;;;;0.20;0.20;;;16.80;99.90;;;;;;4807325;29;20503;-78
2023/08/08 10:40:59;;;;;;;0.20;0.20;;;16.80;99.90;;;;;;4783722;29;1141966;-77
2023/08/08 10:43:31;;;;;;;0.10;0.10;;;16.90;99.90;;;;;;4816969;29;20053;-78
2023/08/08 10:46:01;;;;;;;0.20;0.20;;;17.00;99.90;;;;;;4820763;29;20042;-77
2023/08/08 10:48:27;;;;;;;0.20;0.20;;;17.10;99.90;;;;;;4803662;29;20125;-80
2023/08/08 10:51:00;;;;;;;0.20;0.20;;;17.10;99.90;;;;;;4802496;29;20046;-80
2023/08/08 10:53:29;;;;;;;0.17;0.17;;;17.20;99.90;;;;;;4814798;29;20046;-78
2023/08/08 10:56:03;;;;;;;0.17;0.17;;;17.30;99.90;;;;;;4813132;29;20050;-79
2023/08/08 10:58:40;;;;;;;0.20;0.20;;;17.30;99.90;;;;;;4811603;29;20057;-80
2023/08/08 11:01:10;;;;;;;0.20;0.20;;;17.40;99.90;;;;;;4807086;29;20083;-80
2023/08/08 11:03:41;;;;;;;0.10;0.10;;;17.60;99.90;;;;;;4821149;29;20042;-79
2023/08/08 11:06:08;;;;;;;0.20;0.20;;;17.70;99.90;;;;;;4809250;29;20043;-80
2023/08/08 11:08:35;;;;;;;0.17;0.17;;;17.80;99.90;;;;;;4812486;29;20054;-79
2023/08/08 11:11:03;;;;;;;0.20;0.20;;;18.00;99.90;;;;;;4820954;29;20129;-79
2023/08/08 11:13:29;;;;;;;0.20;0.20;;;18.10;99.90;;;;;;4818567;29;20046;-79
2023/08/08 11:15:55;;;;;;;0.20;0.20;;;18.10;99.90;;;;;;4821503;29;20053;-80
2023/08/08 11:18:21;;;;;;;0.17;0.17;;;18.10;99.90;;;;;;4818233;29;20483;-80
2023/08/08 11:20:49;;;;;;;0.20;0.20;;;18.00;99.90;;;;;;4816176;29;20504;-80
2023/08/08 11:23:15;;;;;;;0.20;0.20;;;18.00;99.90;;;;;;4819838;29;20110;-80
2023/08/08 11:25:42;;;;;;;0.20;0.20;;;18.00;99.90;;;;;;4806416;29;20125;-81
2023/08/08 11:28:09;;;;;;;0.20;0.20;;;18.00;99.90;;;;;;4813192;29;20039;-80
2023/08/08 11:30:38;;;;;;;0.20;0.20;;;18.00;99.90;;;;;;4802075;29;20076;-80
2023/08/08 11:33:04;;;;;;;0.20;0.20;;;17.90;99.90;;;;;;4806205;29;20099;-79
2023/08/08 11:35:30;;;;;;;0.20;0.20;;;17.90;99.90;;;;;;4818279;29;20491;-80
2023/08/08 11:37:58;;;;;;;0.20;0.20;;;17.90;99.90;;;;;;4819274;29;20046;-80
2023/08/08 11:40:26;;;;;;;0.13;0.13;;;18.00;99.90;;;;;;4820479;29;20515;-80
2023/08/08 11:42:53;;;;;;;0.20;0.20;;;18.10;99.90;;;;;;4822130;29;20097;-80
2023/08/08 11:45:19;;;;;;;0.20;0.20;;;18.20;99.90;;;;;;4806491;29;20054;-81
2023/08/08 11:47:52;;;;;;;0.20;0.20;;;18.40;99.90;;;;;;4801183;29;20092;-81
2023/08/08 11:50:22;;;;;;;0.20;0.20;;;18.40;99.90;;;;;;4818719;29;20047;-80
2023/08/08 11:52:50;;;;;;;0.20;0.20;;;18.40;99.90;;;;;;4820658;29;20054;-79
2023/08/08 11:55:15;;;;;;;0.20;0.20;;;18.60;99.90;;;;;;4820115;29;20061;-79
2023/08/08 11:57:41;;;;;;;0.20;0.20;;;18.60;99.90;;;;;;4816701;29;20442;-76
2023/08/08 12:00:09;;;;;;;0.20;0.20;;;18.60;99.90;;;;;;4805292;29;20064;-79
2023/08/08 12:02:35;;;;;;;0.20;0.20;;;18.60;99.90;;;;;;4804247;29;20110;-80
2023/08/08 12:05:08;;;;;;;0.20;0.20;;;18.80;99.90;;;;;;4801408;29;20042;-79
2023/08/08 12:07:35;;;;;;;0.20;0.20;;;18.90;99.90;;;;;;4813543;29;20054;-80
2023/08/08 12:10:04;;;;;;;0.20;0.20;;;19.00;99.90;;;;;;4809487;29;20055;-80
2023/08/08 12:12:33;;;;;;;0.20;0.20;;;19.10;99.90;;;;;;4816508;29;20126;-81
2023/08/08 12:15:03;;;;;;;0.20;0.20;;;19.30;99.90;;;;;;4801019;29;20415;-79
2023/08/08 12:17:32;;;;;;;0.20;0.20;;;19.40;99.90;;;;;;4816148;29;20046;-79
2023/08/08 12:20:03;;;;;;;0.20;0.20;;;19.50;99.90;;;;;;4815601;29;20636;-79
2023/08/08 12:22:31;;;;;;;0.20;0.20;;;19.50;99.90;;;;;;4820749;29;20057;-78
2023/08/08 12:24:56;;;;;;;0.20;0.20;;;19.40;99.90;;;;;;4819856;29;20038;-79
2023/08/08 12:27:22;;;;;;;0.20;0.20;;;19.30;99.90;;;;;;4805190;29;20058;-80
2023/08/08 12:29:48;;;;;;;0.20;0.20;;;19.10;99.90;;;;;;4820074;29;20073;-79
2023/08/08 12:32:13;;;;;;;0.20;0.20;;;19.10;99.90;;;;;;4817135;29;20078;-79
2023/08/08 12:34:39;;;;;;;0.20;0.20;;;19.10;99.90;;;;;;4819028;29;20102;-80
2023/08/08 12:37:05;;;;;;;0.20;0.20;;;19.20;99.90;;;;;;4804268;29;20054;-80
2023/08/08 12:39:30;;;;;;;0.15;0.15;;;19.20;99.90;;;;;;4818962;29;20054;-78
2023/08/08 12:41:56;;;;;;;0.20;0.20;;;19.30;99.90;;;;;;4810939;29;20058;-79
2023/08/08 12:44:22;;;;;;;0.20;0.20;;;19.20;99.90;;;;;;4817091;29;20704;-78